createdAt,value
2018-02-01T00:00:22.567Z,7.90
2018-02-01T00:03:02.396Z,5.87
2018-02-01T00:05:42.978Z,7.80
2018-02-01T00:08:22.723Z,7.00
2018-02-01T00:11:02.249Z,6.80
2018-02-01T00:13:41.651Z,15.87
2018-02-01T00:16:20.210Z,5.90
2018-02-01T00:18:59.668Z,8.70
2018-02-01T00:21:38.245Z,7.90
2018-02-01T00:24:17.659Z,8.90
2018-02-01T00:26:57.087Z,5.80
2018-02-01T00:29:39.707Z,14.00
2018-02-01T00:32:19.157Z,11.03
2018-02-01T00:34:58.482Z,12.47
2018-02-01T00:37:37.871Z,8.57
2018-02-01T00:40:16.306Z,10.90
2018-02-01T00:42:55.910Z,14.93
2018-02-01T00:45:35.401Z,12.60
2018-02-01T00:48:17.529Z,12.50
2018-02-01T00:50:56.495Z,9.63
2018-02-01T00:53:36.028Z,16.70
2018-02-01T00:56:17.770Z,20.03
2018-02-01T00:58:57.596Z,12.00
2018-02-01T01:01:36.142Z,11.37
2018-02-01T01:04:15.171Z,10.27
2018-02-01T01:06:54.141Z,10.43
2018-02-01T01:09:33.588Z,9.07
2018-02-01T01:12:12.713Z,13.20
2018-02-01T01:14:52.475Z,10.43
2018-02-01T01:17:32.755Z,8.60
2018-02-01T01:20:11.333Z,15.70
2018-02-01T01:22:49.782Z,7.82
2018-02-01T01:25:28.447Z,8.82
2018-02-01T01:28:07.962Z,7.53
2018-02-01T01:30:47.564Z,8.57
2018-02-01T01:33:27.938Z,9.40
2018-02-01T01:36:07.505Z,8.20
2018-02-01T01:38:46.970Z,10.20
2018-02-01T01:41:25.515Z,8.07
2018-02-01T01:44:07.000Z,11.30
2018-02-01T01:46:46.484Z,7.07
2018-02-01T01:49:25.917Z,5.77
2018-02-01T01:52:05.309Z,9.83
2018-02-01T01:54:46.380Z,5.30
2018-02-01T01:57:27.008Z,12.97
2018-02-01T02:02:53.966Z,10.00
2018-02-01T02:05:33.877Z,15.50
2018-02-01T02:08:11.597Z,12.57
2018-02-01T02:10:49.971Z,7.17
2018-02-01T02:13:28.614Z,11.67
2018-02-01T02:16:08.344Z,11.12
2018-02-01T02:18:47.952Z,10.70
2018-02-01T02:21:28.411Z,16.30
2018-02-01T02:24:07.963Z,9.80
2018-02-01T02:26:47.481Z,11.32
2018-02-01T02:29:28.082Z,11.68
2018-02-01T02:32:07.706Z,18.37
2018-02-01T02:34:46.081Z,17.10
2018-02-01T02:37:25.457Z,13.43
2018-02-01T02:40:06.029Z,15.88
2018-02-01T02:42:46.457Z,11.30
2018-02-01T02:45:24.791Z,12.10
2018-02-01T02:48:04.223Z,17.48
2018-02-01T02:50:43.704Z,42.83
2018-02-01T02:53:24.082Z,14.70
2018-02-01T02:58:37.357Z,13.75
2018-02-01T03:01:19.557Z,11.18
2018-02-01T03:04:02.201Z,10.73
2018-02-01T03:06:42.360Z,13.90
2018-02-01T03:09:21.375Z,11.63
2018-02-01T03:11:59.714Z,14.18
2018-02-01T03:14:41.190Z,11.25
2018-02-01T03:17:21.625Z,10.18
2018-02-01T03:20:00.171Z,18.95
2018-02-01T03:22:40.684Z,13.90
2018-02-01T03:25:20.143Z,15.90
2018-02-01T03:27:58.589Z,17.17
2018-02-01T03:30:36.000Z,13.30
2018-02-01T03:33:15.605Z,14.73
2018-02-01T03:35:55.143Z,10.20
2018-02-01T03:38:33.591Z,17.83
2018-02-01T03:41:13.838Z,11.73
2018-02-01T03:43:51.218Z,15.82
2018-02-01T03:46:31.680Z,15.18
2018-02-01T03:49:11.123Z,11.00
2018-02-01T03:51:50.201Z,12.00
2018-02-01T03:54:30.235Z,18.80
2018-02-01T03:57:11.730Z,13.73
2018-02-01T03:59:51.280Z,13.62
2018-02-01T04:02:31.318Z,13.98
2018-02-01T04:05:09.627Z,18.08
2018-02-01T04:07:48.224Z,14.80
2018-02-01T04:10:26.779Z,19.65
2018-02-01T04:13:06.656Z,21.42
2018-02-01T04:15:46.418Z,23.33
2018-02-01T04:18:26.162Z,17.73
2018-02-01T04:21:04.538Z,23.62
2018-02-01T04:23:43.399Z,20.75
2018-02-01T04:26:21.903Z,16.15
2018-02-01T04:29:01.477Z,20.00
2018-02-01T04:31:40.135Z,20.35
2018-02-01T04:34:18.684Z,19.23
2018-02-01T04:36:58.510Z,19.00
2018-02-01T04:39:37.998Z,19.87
2018-02-01T04:42:16.565Z,22.00
2018-02-01T04:44:56.193Z,19.55
2018-02-01T04:47:34.726Z,20.37
2018-02-01T04:50:15.853Z,22.95
2018-02-01T04:52:54.886Z,23.35
2018-02-01T04:55:34.492Z,26.20
2018-02-01T04:58:13.790Z,26.17
2018-02-01T05:00:53.385Z,29.10
2018-02-01T05:03:31.048Z,33.03
2018-02-01T05:06:10.680Z,32.50
2018-02-01T05:08:49.122Z,23.02
2018-02-01T05:11:29.619Z,18.83
2018-02-01T05:14:10.173Z,17.33
2018-02-01T05:16:48.729Z,18.95
2018-02-01T05:19:30.306Z,29.30
2018-02-01T05:22:08.735Z,25.42
2018-02-01T05:24:47.202Z,21.90
2018-02-01T05:27:25.668Z,24.60
2018-02-01T05:30:05.553Z,24.08
2018-02-01T05:32:43.625Z,27.85
2018-02-01T05:35:21.065Z,16.60
2018-02-01T05:38:01.753Z,23.10
2018-02-01T05:40:40.261Z,21.58
2018-02-01T05:43:18.705Z,23.25
2018-02-01T05:45:57.143Z,20.90
2018-02-01T05:48:36.697Z,21.95
2018-02-01T05:51:17.410Z,22.17
2018-02-01T05:54:01.058Z,22.98
2018-02-01T05:56:39.669Z,28.42
2018-02-01T05:59:21.304Z,20.88
2018-02-01T06:02:06.726Z,24.80
2018-02-01T06:04:45.093Z,22.23
2018-02-01T06:07:25.669Z,20.55
2018-02-01T06:10:06.105Z,18.98
2018-02-01T06:12:46.510Z,23.87
2018-02-01T06:15:27.074Z,24.15
2018-02-01T06:18:06.510Z,22.05
2018-02-01T06:20:45.051Z,24.52
2018-02-01T06:23:24.521Z,28.60
2018-02-01T06:26:03.025Z,32.92
2018-02-01T06:28:44.626Z,26.62
2018-02-01T06:31:23.094Z,29.83
2018-02-01T06:34:02.697Z,24.58
2018-02-01T06:36:41.280Z,33.03
2018-02-01T06:39:21.819Z,32.10
2018-02-01T06:42:02.579Z,26.83
2018-02-01T06:44:42.159Z,26.27
2018-02-01T06:47:22.713Z,23.50
2018-02-01T06:50:03.470Z,25.67
2018-02-01T06:52:42.930Z,20.80
2018-02-01T06:55:22.628Z,21.05
2018-02-01T06:58:01.241Z,20.48
2018-02-01T07:00:56.688Z,24.10
2018-02-01T07:03:35.306Z,24.60
2018-02-01T07:06:15.986Z,21.65
2018-02-01T07:08:54.502Z,22.65
2018-02-01T07:11:35.232Z,27.67
2018-02-01T07:14:14.886Z,20.10
2018-02-01T07:16:54.517Z,18.98
2018-02-01T07:19:34.202Z,16.67
2018-02-01T07:22:14.011Z,19.58
2018-02-01T07:24:52.375Z,21.48
2018-02-01T07:27:32.018Z,18.15
2018-02-01T07:30:11.701Z,19.65
2018-02-01T07:32:52.381Z,24.35
2018-02-01T07:35:33.139Z,18.42
2018-02-01T07:38:12.846Z,18.35
2018-02-01T07:40:53.468Z,16.52
2018-02-01T07:43:31.997Z,18.08
2018-02-01T07:46:11.654Z,23.25
2018-02-01T07:48:51.243Z,17.60
2018-02-01T07:51:31.706Z,17.87
2018-02-01T07:54:11.361Z,16.15
2018-02-01T07:56:49.882Z,13.25
2018-02-01T07:59:28.532Z,15.65
2018-02-01T08:02:07.992Z,18.70
2018-02-01T08:04:48.587Z,17.00
2018-02-01T08:07:29.370Z,15.30
2018-02-01T08:10:08.118Z,13.60
2018-02-01T08:12:46.444Z,14.18
2018-02-01T08:15:25.418Z,14.63
2018-02-01T08:18:04.334Z,14.25
2018-02-01T08:20:43.853Z,19.17
2018-02-01T08:23:23.612Z,14.18
2018-02-01T08:26:03.488Z,13.62
2018-02-01T08:28:43.078Z,11.30
2018-02-01T08:31:21.798Z,14.87
2018-02-01T08:34:02.422Z,11.27
2018-02-01T08:36:41.011Z,14.25
2018-02-01T08:39:19.672Z,13.40
2018-02-01T08:41:59.486Z,12.50
2018-02-01T08:44:38.994Z,12.10
2018-02-01T08:47:17.583Z,16.95
2018-02-01T08:49:57.156Z,12.57
2018-02-01T08:52:36.787Z,9.30
2018-02-01T08:55:16.469Z,10.50
2018-02-01T08:57:56.170Z,13.10
2018-02-01T09:00:34.581Z,9.25
2018-02-01T09:03:14.192Z,11.85
2018-02-01T09:05:52.745Z,10.07
2018-02-01T09:08:32.133Z,11.60
2018-02-01T09:11:12.702Z,15.05
2018-02-01T09:13:52.231Z,10.77
2018-02-01T09:16:31.054Z,11.52
2018-02-01T09:19:09.581Z,8.00
2018-02-01T09:21:49.235Z,9.93
2018-02-01T09:24:28.735Z,10.13
2018-02-01T09:27:08.667Z,15.57
2018-02-01T09:29:47.469Z,8.85
2018-02-01T09:32:28.082Z,10.63
2018-02-01T09:35:07.788Z,11.63
2018-02-01T09:37:48.463Z,9.93
2018-02-01T09:40:29.143Z,10.30
2018-02-01T09:43:08.728Z,11.70
2018-02-01T09:45:48.319Z,13.13
2018-02-01T09:48:26.804Z,10.45
2018-02-01T09:51:05.538Z,10.95
2018-02-01T09:53:45.125Z,13.50
2018-02-01T09:56:23.575Z,13.45
2018-02-01T09:59:02.136Z,14.90
2018-02-01T10:01:41.698Z,8.40
2018-02-01T10:04:22.209Z,10.65
2018-02-01T10:07:01.721Z,10.63
2018-02-01T10:09:39.336Z,12.63
2018-02-01T10:12:17.955Z,12.40
2018-02-01T10:14:56.653Z,13.15
2018-02-01T10:17:35.284Z,11.85
2018-02-01T10:20:13.062Z,18.20
2018-02-01T10:22:52.797Z,17.42
2018-02-01T10:25:29.376Z,16.58
2018-02-01T10:28:09.281Z,11.10
2018-02-01T10:30:48.662Z,10.40
2018-02-01T10:33:27.051Z,11.10
2018-02-01T10:36:06.449Z,9.30
2018-02-01T10:38:46.006Z,9.00
2018-02-01T10:41:27.493Z,6.53
2018-02-01T10:44:08.259Z,8.82
2018-02-01T10:46:48.863Z,9.07
2018-02-01T10:49:27.677Z,8.05
2018-02-01T10:52:06.268Z,9.77
2018-02-01T10:54:45.930Z,9.63
2018-02-01T10:57:26.783Z,10.68
2018-02-01T11:00:06.504Z,13.10
2018-02-01T11:02:45.089Z,10.65
2018-02-01T11:05:23.618Z,6.97
2018-02-01T11:08:02.112Z,7.93
2018-02-01T11:10:41.590Z,12.35
2018-02-01T11:13:21.845Z,8.68
2018-02-01T11:16:00.903Z,11.02
2018-02-01T11:18:40.380Z,12.70
2018-02-01T11:21:19.910Z,8.35
2018-02-01T11:23:59.372Z,8.40
2018-02-01T11:26:39.084Z,9.77
2018-02-01T11:29:19.632Z,8.40
2018-02-01T11:31:59.220Z,10.23
2018-02-01T11:34:40.737Z,10.90
2018-02-01T11:37:20.346Z,9.32
2018-02-01T11:39:59.870Z,10.27
2018-02-01T11:42:40.346Z,9.60
2018-02-01T11:45:18.846Z,9.80
2018-02-01T11:47:58.506Z,8.90
2018-02-01T11:50:36.865Z,13.23
2018-02-01T11:53:15.345Z,9.23
2018-02-01T11:55:54.906Z,9.80
2018-02-01T11:58:34.269Z,8.95
2018-02-01T12:01:13.746Z,14.57
2018-02-01T12:03:53.316Z,8.98
2018-02-01T12:06:32.802Z,10.45
2018-02-01T12:09:11.271Z,7.82
2018-02-01T12:11:50.830Z,8.73
2018-02-01T12:14:29.078Z,9.45
2018-02-01T12:17:07.836Z,6.40
2018-02-01T12:19:47.315Z,9.45
2018-02-01T12:22:27.789Z,8.18
2018-02-01T12:25:07.467Z,9.07
2018-02-01T12:27:52.098Z,8.02
2018-02-01T12:30:30.876Z,8.68
2018-02-01T12:33:10.298Z,8.73
2018-02-01T12:35:49.760Z,7.82
2018-02-01T12:38:29.104Z,7.10
2018-02-01T12:41:24.617Z,6.37
2018-02-01T12:44:05.456Z,5.30
2018-02-01T12:46:46.105Z,8.48
2018-02-01T12:49:24.504Z,6.62
2018-02-01T12:52:04.083Z,6.10
2018-02-01T12:54:44.262Z,9.38
2018-02-01T12:57:23.067Z,8.13
2018-02-01T13:00:01.590Z,7.65
2018-02-01T13:02:41.268Z,7.68
2018-02-01T13:05:20.950Z,11.48
2018-02-01T13:08:00.619Z,5.75
2018-02-01T13:10:42.095Z,5.53
2018-02-01T13:13:20.489Z,6.60
2018-02-01T13:15:58.918Z,7.57
2018-02-01T13:18:38.397Z,8.27
2018-02-01T13:21:17.034Z,18.77
2018-02-01T13:23:56.398Z,13.40
2018-02-01T13:26:38.110Z,14.35
2018-02-01T13:29:16.631Z,9.98
2018-02-01T13:32:00.271Z,11.15
2018-02-01T13:34:39.856Z,11.70
2018-02-01T13:37:21.760Z,13.23
2018-02-01T13:39:58.948Z,15.32
2018-02-01T13:42:40.546Z,13.65
2018-02-01T13:45:21.161Z,15.32
2018-02-01T13:47:59.575Z,11.98
2018-02-01T13:50:38.961Z,14.90
2018-02-01T13:53:19.306Z,10.00
2018-02-01T13:55:58.878Z,18.23
2018-02-01T13:58:38.478Z,11.25
2018-02-01T14:01:18.921Z,11.35
2018-02-01T14:03:58.459Z,9.45
2018-02-01T14:06:36.943Z,6.43
2018-02-01T14:09:16.514Z,6.05
2018-02-01T14:11:55.939Z,5.45
2018-02-01T14:14:36.590Z,5.20
2018-02-01T14:17:15.180Z,4.68
2018-02-01T14:19:53.739Z,6.05
2018-02-01T14:22:34.407Z,7.93
2018-02-01T14:25:14.152Z,8.73
2018-02-01T14:27:53.704Z,5.03
2018-02-01T14:30:34.158Z,6.95
2018-02-01T14:33:12.696Z,4.65
2018-02-01T14:35:50.306Z,5.40
2018-02-01T14:38:29.770Z,8.40
2018-02-01T14:41:08.211Z,5.60
2018-02-01T14:43:46.843Z,5.00
2018-02-01T14:46:27.412Z,11.05
2018-02-01T14:49:08.932Z,5.78
2018-02-01T14:51:48.545Z,5.05
2018-02-01T14:54:28.117Z,3.90
2018-02-01T14:57:09.523Z,4.72
2018-02-01T14:59:48.911Z,5.95
2018-02-01T15:02:29.496Z,4.35
2018-02-01T15:05:08.942Z,5.40
2018-02-01T15:07:47.490Z,5.85
2018-02-01T15:10:26.839Z,7.65
2018-02-01T15:13:07.701Z,9.27
2018-02-01T15:15:47.141Z,5.15
2018-02-01T15:18:25.706Z,8.82
2018-02-01T15:21:05.958Z,5.12
2018-02-01T15:23:44.928Z,6.35
2018-02-01T15:26:24.473Z,5.90
2018-02-01T15:29:03.054Z,5.40
2018-02-01T15:31:41.583Z,7.97
2018-02-01T15:34:21.174Z,6.37
2018-02-01T15:37:00.894Z,5.87
2018-02-01T15:39:40.466Z,3.60
2018-02-01T15:42:20.114Z,6.78
2018-02-01T15:44:59.693Z,8.05
2018-02-01T15:47:39.207Z,6.93
2018-02-01T15:50:17.713Z,6.45
2018-02-01T15:52:55.116Z,5.20
2018-02-01T15:55:33.561Z,6.47
2018-02-01T15:58:13.276Z,5.07
2018-02-01T16:00:52.607Z,6.40
2018-02-01T16:03:32.196Z,6.68
2018-02-01T16:06:10.686Z,5.10
2018-02-01T16:08:49.084Z,11.55
2018-02-01T16:11:27.474Z,6.70
2018-02-01T16:14:07.077Z,7.10
2018-02-01T16:16:46.556Z,9.55
2018-02-01T16:19:26.267Z,6.12
2018-02-01T16:22:06.654Z,7.12
2018-02-01T16:24:46.244Z,6.45
2018-02-01T16:27:25.766Z,9.85
2018-02-01T16:30:05.246Z,7.37
2018-02-01T16:32:44.569Z,9.25
2018-02-01T16:35:23.846Z,12.98
2018-02-01T16:38:03.225Z,9.25
2018-02-01T16:40:42.692Z,15.07
2018-02-01T16:43:23.552Z,10.38
2018-02-01T16:46:02.763Z,7.95
2018-02-01T16:48:42.260Z,9.73
2018-02-01T16:51:20.561Z,5.00
2018-02-01T16:53:59.019Z,6.85
2018-02-01T16:56:38.594Z,12.80
2018-02-01T16:59:18.271Z,6.07
2018-02-01T17:01:56.753Z,7.68
2018-02-01T17:04:37.291Z,6.12
2018-02-01T17:07:15.893Z,6.68
2018-02-01T17:09:55.289Z,5.70
2018-02-01T17:12:33.683Z,5.25
2018-02-01T17:15:14.330Z,9.30
2018-02-01T17:17:53.818Z,6.72
2018-02-01T17:20:32.117Z,9.10
2018-02-01T17:23:11.516Z,11.73
2018-02-01T17:25:51.134Z,8.05
2018-02-01T17:28:29.718Z,7.30
2018-02-01T17:31:08.190Z,6.90
2018-02-01T17:33:48.702Z,11.27
2018-02-01T17:36:27.145Z,8.82
2018-02-01T17:39:06.466Z,10.10
2018-02-01T17:41:45.959Z,10.10
2018-02-01T17:44:25.223Z,11.50
2018-02-01T17:47:03.609Z,11.12
2018-02-01T17:49:44.186Z,9.52
2018-02-01T17:52:23.538Z,7.90
2018-02-01T17:55:03.975Z,6.85
2018-02-01T17:57:43.465Z,9.85
2018-02-01T18:00:23.262Z,8.73
2018-02-01T18:03:02.743Z,8.30
2018-02-01T18:05:42.244Z,13.45
2018-02-01T18:08:21.729Z,13.07
2018-02-01T18:11:01.089Z,7.60
2018-02-01T18:13:41.741Z,18.75
2018-02-01T18:16:21.219Z,7.50
2018-02-01T18:18:59.717Z,10.30
2018-02-01T18:21:39.322Z,7.80
2018-02-01T18:24:19.671Z,8.20
2018-02-01T18:26:58.156Z,11.20
2018-02-01T18:29:37.641Z,7.07
2018-02-01T18:32:17.445Z,7.53
2018-02-01T18:34:55.843Z,10.90
2018-02-01T18:37:35.327Z,8.00
2018-02-01T18:40:14.796Z,6.82
2018-02-01T18:42:54.217Z,6.47
2018-02-01T18:45:34.917Z,8.07
2018-02-01T18:48:13.447Z,6.75
2018-02-01T18:50:52.671Z,5.87
2018-02-01T18:53:32.124Z,5.50
2018-02-01T18:56:11.554Z,3.92
2018-02-01T18:58:50.150Z,6.80
2018-02-01T19:01:29.733Z,3.30
2018-02-01T19:04:09.224Z,4.90
2018-02-01T19:06:48.685Z,2.87
2018-02-01T19:09:28.082Z,5.47
2018-02-01T19:12:06.433Z,8.33
2018-02-01T19:14:46.017Z,7.82
2018-02-01T19:17:26.770Z,6.12
2018-02-01T19:20:05.266Z,4.55
2018-02-01T19:22:43.779Z,4.30
2018-02-01T19:25:23.220Z,2.92
2018-02-01T19:28:01.814Z,7.28
2018-02-01T19:30:41.380Z,2.40
2018-02-01T19:33:20.902Z,4.57
2018-02-01T19:36:00.425Z,3.78
2018-02-01T19:38:38.969Z,2.70
2018-02-01T19:41:18.517Z,4.82
2018-02-01T19:43:58.064Z,3.78
2018-02-01T19:46:38.362Z,4.50
2018-02-01T19:49:17.994Z,5.07
2018-02-01T19:51:56.337Z,3.57
2018-02-01T19:54:34.813Z,4.43
2018-02-01T19:57:14.354Z,5.10
2018-02-01T19:59:53.885Z,4.80
2018-02-01T20:02:32.495Z,4.22
2018-02-01T20:05:10.926Z,6.50
2018-02-01T20:07:50.428Z,3.70
2018-02-01T20:10:30.822Z,7.80
2018-02-01T20:13:10.343Z,3.30
2018-02-01T20:15:49.785Z,5.13
2018-02-01T20:18:28.327Z,4.13
2018-02-01T20:21:07.770Z,5.00
2018-02-01T20:23:48.198Z,5.80
2018-02-01T20:26:27.674Z,5.70
2018-02-01T20:29:05.923Z,8.10
2018-02-01T20:31:44.387Z,5.10
2018-02-01T20:34:24.855Z,5.90
2018-02-01T20:37:03.174Z,5.77
2018-02-01T20:39:42.362Z,3.83
2018-02-01T20:42:21.037Z,7.33
2018-02-01T20:45:00.325Z,6.20
2018-02-01T20:47:37.879Z,6.13
2018-02-01T20:50:17.298Z,6.07
2018-02-01T20:52:55.740Z,5.53
2018-02-01T20:55:35.201Z,5.20
2018-02-01T20:58:15.670Z,5.23
2018-02-01T21:00:55.048Z,4.27
2018-02-01T21:03:34.590Z,4.83
2018-02-01T21:06:14.347Z,5.47
2018-02-01T21:08:54.066Z,3.80
2018-02-01T21:11:33.370Z,5.20
2018-02-01T21:14:13.770Z,7.17
2018-02-01T21:16:52.282Z,7.90
2018-02-01T21:19:30.664Z,7.03
2018-02-01T21:22:10.098Z,6.33
2018-02-01T21:24:51.717Z,4.53
2018-02-01T21:27:31.235Z,8.33
2018-02-01T21:30:11.746Z,5.80
2018-02-01T21:32:51.289Z,4.50
2018-02-01T21:35:30.653Z,4.37
2018-02-01T21:38:10.011Z,5.33
2018-02-01T21:40:51.391Z,7.57
2018-02-01T21:43:30.885Z,3.83
2018-02-01T21:46:09.422Z,7.00
2018-02-01T21:48:47.866Z,6.50
2018-02-01T21:51:28.432Z,8.50
2018-02-01T21:54:07.941Z,7.00
2018-02-01T21:56:48.701Z,11.60
2018-02-01T21:59:27.140Z,8.30
2018-02-01T22:02:07.733Z,8.67
2018-02-01T22:04:46.407Z,7.10
2018-02-01T22:07:25.858Z,8.30
2018-02-01T22:10:06.405Z,7.67
2018-02-01T22:12:45.973Z,5.43
2018-02-01T22:15:24.521Z,7.03
2018-02-01T22:18:02.926Z,6.33
2018-02-01T22:20:42.330Z,8.47
2018-02-01T22:23:19.962Z,5.50
2018-02-01T22:25:59.538Z,10.03
2018-02-01T22:28:41.177Z,9.50
2018-02-01T22:31:19.518Z,7.97
2018-02-01T22:33:59.105Z,8.90
2018-02-01T22:36:39.701Z,6.60
2018-02-01T22:39:18.299Z,9.07
2018-02-01T22:41:56.692Z,7.07
2018-02-01T22:44:36.148Z,5.57
2018-02-01T22:47:14.494Z,10.43
2018-02-01T22:49:54.135Z,8.63
2018-02-01T22:52:34.989Z,6.77
2018-02-01T22:55:13.491Z,9.73
2018-02-01T22:57:51.978Z,8.53
2018-02-01T23:00:38.352Z,6.60
2018-02-01T23:03:16.862Z,6.90
2018-02-01T23:05:55.318Z,10.10
2018-02-01T23:08:33.774Z,8.77
2018-02-01T23:11:14.164Z,7.33
2018-02-01T23:13:52.645Z,7.10
2018-02-01T23:16:33.153Z,7.03
2018-02-01T23:19:11.902Z,7.57
2018-02-01T23:21:53.500Z,6.77
2018-02-01T23:24:32.996Z,9.97
2018-02-01T23:27:12.547Z,5.33
2018-02-01T23:29:51.057Z,4.13
2018-02-01T23:32:30.644Z,5.60
2018-02-01T23:35:10.201Z,7.27
2018-02-01T23:37:48.578Z,5.10
2018-02-01T23:40:28.762Z,4.83
2018-02-01T23:43:08.555Z,4.43
2018-02-01T23:45:48.915Z,4.43
2018-02-01T23:48:28.550Z,3.40
2018-02-01T23:51:07.048Z,4.43
2018-02-01T23:53:45.631Z,4.00
2018-02-01T23:56:25.178Z,4.50
2018-02-01T23:59:04.910Z,4.10
